createdAt,value
2023-02-19T00:02:48.339Z,97186.00
2023-02-19T00:05:52.958Z,97181.94
2023-02-19T00:08:58.277Z,97184.53
2023-02-19T00:12:03.086Z,97177.72
2023-02-19T00:15:07.768Z,97185.72
2023-02-19T00:18:12.315Z,97163.84
2023-02-19T00:21:17.552Z,97141.06
2023-02-19T00:24:22.626Z,97175.72
2023-02-19T00:27:27.113Z,97141.63
2023-02-19T00:30:31.678Z,97169.16
2023-02-19T00:33:36.538Z,97150.38
2023-02-19T00:36:42.530Z,97140.84
2023-02-19T00:39:47.159Z,97171.56
2023-02-19T00:42:52.165Z,97170.63
2023-02-19T00:45:56.854Z,97166.41
2023-02-19T00:49:02.279Z,97133.97
2023-02-19T00:52:06.990Z,97176.81
2023-02-19T00:55:11.510Z,97164.91
2023-02-19T00:58:16.115Z,97166.34
2023-02-19T01:01:21.183Z,97133.59
2023-02-19T01:04:26.098Z,97127.31
2023-02-19T01:07:30.674Z,97153.50
2023-02-19T01:10:35.371Z,97133.38
2023-02-19T01:13:41.211Z,97126.59
2023-02-19T01:16:45.874Z,97147.00
2023-02-19T01:19:50.768Z,97147.50
2023-02-19T01:22:55.473Z,97157.34
2023-02-19T01:25:59.950Z,97135.06
2023-02-19T01:29:04.894Z,97130.56
2023-02-19T01:32:09.977Z,97152.06
2023-02-19T01:35:15.178Z,97112.41
2023-02-19T01:38:19.931Z,97129.41
2023-02-19T01:41:25.734Z,97093.47
2023-02-19T01:44:30.253Z,97126.81
2023-02-19T01:47:35.226Z,97090.28
2023-02-19T01:50:49.367Z,97096.94
2023-02-19T01:53:57.499Z,97109.50
2023-02-19T01:57:06.882Z,97108.69
2023-02-19T02:00:14.703Z,97102.13
2023-02-19T02:03:19.805Z,97062.47
2023-02-19T02:06:27.750Z,97096.94
2023-02-19T02:09:50.778Z,97087.38
2023-02-19T02:12:58.315Z,97088.28
2023-02-19T02:16:17.433Z,97082.94
2023-02-19T02:19:51.160Z,97074.22
2023-02-19T02:23:22.417Z,97074.28
2023-02-19T02:27:01.248Z,97062.88
2023-02-19T02:30:30.157Z,97052.69
2023-02-19T02:33:42.368Z,97059.06
2023-02-19T02:36:52.336Z,97049.97
2023-02-19T02:39:58.390Z,97047.59
2023-02-19T02:43:03.564Z,97037.03
2023-02-19T02:46:18.357Z,97042.28
2023-02-19T02:49:24.897Z,97020.09
2023-02-19T02:52:48.799Z,97025.28
2023-02-19T02:55:54.574Z,97025.00
2023-02-19T02:59:02.891Z,96991.06
2023-02-19T03:02:19.093Z,97020.69
2023-02-19T03:05:45.674Z,97019.88
2023-02-19T03:09:07.278Z,96996.94
2023-02-19T03:12:34.535Z,97005.69
2023-02-19T03:16:03.918Z,97002.75
2023-02-19T03:19:19.672Z,96974.38
2023-02-19T03:22:33.558Z,96970.78
2023-02-19T03:25:58.428Z,96993.34
2023-02-19T03:29:24.042Z,96997.53
2023-02-19T03:32:37.598Z,97007.97
2023-02-19T03:35:49.282Z,96997.44
2023-02-19T03:39:02.426Z,96991.63
2023-02-19T03:43:10.616Z,96989.00
2023-02-19T03:46:23.311Z,96992.88
2023-02-19T03:49:37.076Z,96964.22
2023-02-19T03:52:55.442Z,96940.56
2023-02-19T03:56:14.425Z,96908.56
2023-02-19T03:59:24.774Z,96970.09
2023-02-19T04:02:38.427Z,96957.75
2023-02-19T04:05:52.234Z,96963.03
2023-02-19T04:09:00.395Z,96959.69
2023-02-19T04:12:07.447Z,96962.28
2023-02-19T04:15:20.637Z,96966.84
2023-02-19T04:18:31.417Z,96951.47
2023-02-19T04:21:38.169Z,96937.75
2023-02-19T04:24:47.995Z,96946.47
2023-02-19T04:27:52.952Z,96950.31
2023-02-19T04:30:57.829Z,96940.66
2023-02-19T04:34:03.890Z,96908.44
2023-02-19T04:37:08.512Z,96958.09
2023-02-19T04:40:13.078Z,96927.25
2023-02-19T04:43:18.627Z,96944.63
2023-02-19T04:46:23.192Z,96942.47
2023-02-19T04:49:27.838Z,96940.66
2023-02-19T04:52:33.527Z,96948.25
2023-02-19T04:55:39.437Z,96916.59
2023-02-19T04:58:45.587Z,96944.75
2023-02-19T05:01:50.227Z,96922.69
2023-02-19T05:04:54.918Z,96930.56
2023-02-19T05:07:59.467Z,96920.00
2023-02-19T05:11:05.928Z,96940.56
2023-02-19T05:14:10.528Z,96914.22
2023-02-19T05:17:15.107Z,96903.00
2023-02-19T05:20:19.769Z,96921.44
2023-02-19T05:23:24.812Z,96939.66
2023-02-19T05:26:31.109Z,96902.38
2023-02-19T05:29:35.920Z,96921.22
2023-02-19T05:32:40.450Z,96933.78
2023-02-19T05:35:48.190Z,96935.09
2023-02-19T05:38:57.224Z,96950.69
2023-02-19T05:42:01.738Z,96922.25
2023-02-19T05:45:06.714Z,96943.88
2023-02-19T05:48:12.585Z,96946.69
2023-02-19T05:51:19.104Z,96957.34
2023-02-19T05:54:23.914Z,96957.22
2023-02-19T05:57:28.694Z,96934.19
2023-02-19T06:00:33.710Z,96979.53
2023-02-19T06:03:38.306Z,96957.31
2023-02-19T06:06:43.336Z,96967.69
2023-02-19T06:09:51.272Z,96950.22
2023-02-19T06:12:55.800Z,96955.00
2023-02-19T06:16:03.101Z,96966.00
2023-02-19T06:19:07.690Z,96986.63
2023-02-19T06:22:15.011Z,96973.72
2023-02-19T06:25:20.360Z,96953.72
2023-02-19T06:28:24.909Z,96996.06
2023-02-19T06:31:29.714Z,96971.09
2023-02-19T06:34:34.758Z,96979.66
2023-02-19T06:37:39.348Z,96993.38
2023-02-19T06:40:44.005Z,97002.53
2023-02-19T06:43:48.641Z,96978.13
2023-02-19T06:46:55.735Z,96983.53
2023-02-19T06:50:00.563Z,97001.50
2023-02-19T06:53:05.171Z,97041.47
2023-02-19T06:56:32.524Z,97046.16
2023-02-19T06:59:37.192Z,97041.03
2023-02-19T07:02:41.705Z,97016.91
2023-02-19T07:05:46.278Z,97048.66
2023-02-19T07:08:52.110Z,97039.56
2023-02-19T07:11:57.181Z,97064.22
2023-02-19T07:15:01.687Z,97052.44
2023-02-19T07:18:10.508Z,97052.44
2023-02-19T07:21:16.984Z,97045.59
2023-02-19T07:24:22.422Z,97059.88
2023-02-19T07:27:26.938Z,97068.38
2023-02-19T07:30:31.545Z,97077.13
2023-02-19T07:33:36.421Z,97064.19
2023-02-19T07:36:41.043Z,97092.38
2023-02-19T07:39:45.743Z,97094.09
2023-02-19T07:42:50.304Z,97080.56
2023-02-19T07:45:55.125Z,97067.91
2023-02-19T07:49:00.237Z,97104.72
2023-02-19T07:52:04.946Z,97112.94
2023-02-19T07:55:09.464Z,97119.06
2023-02-19T07:58:14.146Z,97104.09
2023-02-19T08:01:44.072Z,97114.25
2023-02-19T08:04:48.608Z,97114.34
2023-02-19T08:07:53.350Z,97098.94
2023-02-19T08:11:23.923Z,97105.81
2023-02-19T08:14:28.606Z,97071.94
2023-02-19T08:17:33.216Z,97090.78
2023-02-19T08:20:38.191Z,97120.13
2023-02-19T08:23:42.786Z,97098.66
2023-02-19T08:26:47.563Z,97122.75
2023-02-19T08:29:52.292Z,97130.72
2023-02-19T08:32:58.267Z,97126.88
2023-02-19T08:36:05.836Z,97100.38
2023-02-19T08:39:10.426Z,97135.25
2023-02-19T08:42:14.979Z,97136.19
2023-02-19T08:45:20.047Z,97106.47
2023-02-19T08:48:24.556Z,97113.75
2023-02-19T08:51:29.166Z,97130.56
2023-02-19T08:54:33.743Z,97141.59
2023-02-19T08:57:38.308Z,97147.81
2023-02-19T09:00:43.080Z,97132.50
2023-02-19T09:03:47.717Z,97140.59
2023-02-19T09:06:52.431Z,97147.50
2023-02-19T09:09:57.354Z,97145.13
2023-02-19T09:13:02.584Z,97153.31
2023-02-19T09:16:07.430Z,97158.06
2023-02-19T09:19:12.218Z,97167.38
2023-02-19T09:22:17.056Z,97169.84
2023-02-19T09:25:21.611Z,97166.31
2023-02-19T09:28:27.077Z,97187.13
2023-02-19T09:31:31.699Z,97152.09
2023-02-19T09:34:38.941Z,97167.34
2023-02-19T09:37:43.521Z,97142.91
2023-02-19T09:40:48.043Z,97161.16
2023-02-19T09:43:52.924Z,97186.41
2023-02-19T09:47:00.763Z,97184.22
2023-02-19T09:50:10.166Z,97158.03
2023-02-19T09:53:20.495Z,97183.97
2023-02-19T09:56:27.341Z,97175.16
2023-02-19T09:59:42.311Z,97185.53
2023-02-19T10:02:46.830Z,97163.63
2023-02-19T10:05:53.524Z,97185.41
2023-02-19T10:09:22.738Z,97166.19
2023-02-19T10:12:31.682Z,97156.72
2023-02-19T10:15:42.086Z,97146.25
2023-02-19T10:18:47.451Z,97156.13
2023-02-19T10:21:52.083Z,97157.13
2023-02-19T10:24:57.325Z,97169.41
2023-02-19T10:28:02.621Z,97188.47
2023-02-19T10:31:27.516Z,97197.81
2023-02-19T10:34:32.133Z,97187.78
2023-02-19T10:37:43.372Z,97172.06
2023-02-19T10:40:48.644Z,97184.38
2023-02-19T10:44:15.231Z,97217.38
2023-02-19T10:47:23.741Z,97227.78
2023-02-19T10:50:32.163Z,97200.13
2023-02-19T10:53:46.174Z,97226.66
2023-02-19T10:56:50.726Z,97214.63
2023-02-19T11:00:01.173Z,97230.06
2023-02-19T11:03:17.371Z,97227.97
2023-02-19T11:06:26.698Z,97222.63
2023-02-19T11:09:38.328Z,97185.38
2023-02-19T11:12:49.172Z,97228.94
2023-02-19T11:15:55.269Z,97211.59
2023-02-19T11:18:59.909Z,97201.81
2023-02-19T11:22:29.432Z,97222.00
2023-02-19T11:25:34.018Z,97175.28
2023-02-19T11:28:43.071Z,97215.16
2023-02-19T11:31:47.750Z,97207.72
2023-02-19T11:35:12.827Z,97210.56
2023-02-19T11:38:19.659Z,97186.84
2023-02-19T11:41:41.579Z,97207.44
2023-02-19T11:45:13.074Z,97202.31
2023-02-19T11:48:30.207Z,97204.66
2023-02-19T11:51:52.181Z,97184.25
2023-02-19T11:55:23.909Z,97197.03
2023-02-19T11:58:47.019Z,97199.25
2023-02-19T12:02:11.957Z,97200.59
2023-02-19T12:05:24.797Z,97207.56
2023-02-19T12:08:58.821Z,97167.44
2023-02-19T12:12:35.049Z,97202.53
2023-02-19T12:15:59.672Z,97182.25
2023-02-19T12:19:22.673Z,97206.19
2023-02-19T12:22:31.563Z,97214.63
2023-02-19T12:25:49.117Z,97178.84
2023-02-19T12:29:29.585Z,97212.28
2023-02-19T12:32:52.845Z,97197.28
2023-02-19T12:36:00.297Z,97211.31
2023-02-19T12:39:17.301Z,97196.72
2023-02-19T12:43:03.378Z,97217.47
2023-02-19T12:46:14.118Z,97211.81
2023-02-19T12:49:25.191Z,97200.69
2023-02-19T12:52:36.677Z,97219.19
2023-02-19T12:55:44.680Z,97217.59
2023-02-19T12:58:55.855Z,97182.66
2023-02-19T13:02:12.736Z,97209.38
2023-02-19T13:05:44.218Z,97227.16
2023-02-19T13:09:07.230Z,97201.00
2023-02-19T13:12:14.492Z,97219.78
2023-02-19T13:15:28.582Z,97181.09
2023-02-19T13:18:43.320Z,97214.25
2023-02-19T13:22:14.754Z,97199.03
2023-02-19T13:25:21.014Z,97187.31
2023-02-19T13:28:47.144Z,97173.34
2023-02-19T13:32:12.955Z,97187.25
2023-02-19T13:35:45.106Z,97208.28
2023-02-19T13:38:50.382Z,97182.31
2023-02-19T13:41:59.159Z,97202.91
2023-02-19T13:45:06.299Z,97183.44
2023-02-19T13:48:27.054Z,97223.44
2023-02-19T13:51:34.535Z,97209.22
2023-02-19T13:54:40.277Z,97236.03
2023-02-19T13:57:47.099Z,97212.16
2023-02-19T14:00:53.822Z,97226.94
2023-02-19T14:04:18.599Z,97224.66
2023-02-19T14:07:48.924Z,97235.66
2023-02-19T14:10:57.841Z,97190.44
2023-02-19T14:14:06.741Z,97194.34
2023-02-19T14:17:36.224Z,97231.34
2023-02-19T14:20:45.127Z,97227.13
2023-02-19T14:23:55.974Z,97187.66
2023-02-19T14:27:00.674Z,97192.00
2023-02-19T14:30:05.703Z,97195.91
2023-02-19T14:33:11.456Z,97228.84
2023-02-19T14:36:23.547Z,97235.56
2023-02-19T14:39:35.089Z,97234.28
2023-02-19T14:42:41.422Z,97202.69
2023-02-19T14:46:11.135Z,97235.91
2023-02-19T14:49:25.514Z,97249.66
2023-02-19T14:52:48.132Z,97244.56
2023-02-19T14:55:54.950Z,97255.56
2023-02-19T14:59:11.486Z,97275.47
2023-02-19T15:02:26.210Z,97245.09
2023-02-19T15:05:39.246Z,97273.81
2023-02-19T15:08:46.489Z,97277.81
2023-02-19T15:11:51.421Z,97274.69
2023-02-19T15:14:59.461Z,97241.13
2023-02-19T15:18:05.565Z,97268.81
2023-02-19T15:21:22.387Z,97289.25
2023-02-19T15:24:28.291Z,97261.75
2023-02-19T15:27:37.367Z,97273.63
2023-02-19T15:30:42.098Z,97299.53
2023-02-19T15:33:51.566Z,97305.69
2023-02-19T15:37:00.391Z,97312.53
2023-02-19T15:40:07.659Z,97314.41
2023-02-19T15:43:30.751Z,97322.25
2023-02-19T15:46:36.372Z,97296.09
2023-02-19T15:49:53.260Z,97313.81
2023-02-19T15:53:09.476Z,97337.13
2023-02-19T15:56:28.440Z,97328.63
2023-02-19T15:59:42.752Z,97299.88
2023-02-19T16:02:48.566Z,97307.47
2023-02-19T16:06:10.482Z,97327.59
2023-02-19T16:09:24.372Z,97338.22
2023-02-19T16:12:29.725Z,97329.38
2023-02-19T16:15:34.615Z,97344.03
2023-02-19T16:18:45.163Z,97325.19
2023-02-19T16:21:50.350Z,97340.56
2023-02-19T16:25:01.684Z,97306.22
2023-02-19T16:28:23.222Z,97366.41
2023-02-19T16:31:29.460Z,97336.25
2023-02-19T16:34:54.315Z,97363.13
2023-02-19T16:37:59.690Z,97364.88
2023-02-19T16:41:10.944Z,97366.91
2023-02-19T16:44:21.353Z,97369.31
2023-02-19T16:47:29.846Z,97379.19
2023-02-19T16:50:34.626Z,97354.91
2023-02-19T16:53:40.286Z,97392.91
2023-02-19T16:56:44.840Z,97418.91
2023-02-19T16:59:49.411Z,97416.53
2023-02-19T17:02:57.138Z,97392.91
2023-02-19T17:06:02.422Z,97386.81
2023-02-19T17:09:08.584Z,97428.81
2023-02-19T17:12:16.054Z,97437.50
2023-02-19T17:15:21.655Z,97405.88
2023-02-19T17:18:26.207Z,97407.47
2023-02-19T17:21:32.094Z,97444.38
2023-02-19T17:24:36.688Z,97445.28
2023-02-19T17:27:41.491Z,97428.91
2023-02-19T17:30:46.024Z,97419.53
2023-02-19T17:33:51.910Z,97459.72
2023-02-19T17:36:56.814Z,97454.66
2023-02-19T17:40:01.428Z,97487.31
2023-02-19T17:43:06.815Z,97492.50
2023-02-19T17:46:19.231Z,97502.03
2023-02-19T17:49:23.991Z,97477.38
2023-02-19T17:52:29.350Z,97496.50
2023-02-19T17:55:33.979Z,97500.56
2023-02-19T17:58:38.716Z,97509.25
2023-02-19T18:01:43.278Z,97514.56
2023-02-19T18:04:47.874Z,97527.31
2023-02-19T18:07:52.494Z,97532.50
2023-02-19T18:10:57.064Z,97527.38
2023-02-19T18:14:01.635Z,97530.81
2023-02-19T18:17:06.274Z,97541.03
2023-02-19T18:20:16.699Z,97530.00
2023-02-19T18:23:21.263Z,97535.06
2023-02-19T18:26:25.744Z,97518.72
2023-02-19T18:29:30.973Z,97560.81
2023-02-19T18:32:35.570Z,97546.41
2023-02-19T18:35:40.344Z,97528.28
2023-02-19T18:38:46.142Z,97542.06
2023-02-19T18:41:51.582Z,97575.38
2023-02-19T18:44:56.742Z,97585.78
2023-02-19T18:48:01.551Z,97588.38
2023-02-19T18:51:10.078Z,97584.06
2023-02-19T18:54:14.875Z,97582.38
2023-02-19T18:57:22.020Z,97597.81
2023-02-19T19:00:26.682Z,97601.22
2023-02-19T19:03:31.771Z,97585.88
2023-02-19T19:06:36.680Z,97569.66
2023-02-19T19:09:41.254Z,97573.91
2023-02-19T19:12:46.022Z,97591.88
2023-02-19T19:15:51.563Z,97599.59
2023-02-19T19:18:56.984Z,97592.78
2023-02-19T19:22:01.540Z,97570.41
2023-02-19T19:25:06.714Z,97574.75
2023-02-19T19:28:11.481Z,97605.66
2023-02-19T19:31:18.309Z,97612.53
2023-02-19T19:34:22.873Z,97603.16
2023-02-19T19:37:29.211Z,97578.38
2023-02-19T19:40:33.821Z,97593.72
2023-02-19T19:43:38.324Z,97610.09
2023-02-19T19:46:44.657Z,97596.41
2023-02-19T19:49:49.209Z,97635.84
2023-02-19T19:52:53.973Z,97630.78
2023-02-19T19:56:00.204Z,97599.84
2023-02-19T19:59:04.711Z,97599.84
2023-02-19T20:02:11.867Z,97634.19
2023-02-19T20:05:16.927Z,97636.59
2023-02-19T20:08:22.023Z,97639.25
2023-02-19T20:11:26.989Z,97602.50
2023-02-19T20:14:31.567Z,97630.75
2023-02-19T20:17:36.375Z,97637.63
2023-02-19T20:20:40.951Z,97631.53
2023-02-19T20:23:46.074Z,97638.34
2023-02-19T20:26:53.010Z,97646.94
2023-02-19T20:29:57.532Z,97611.03
2023-02-19T20:33:02.288Z,97623.84
2023-02-19T20:36:07.475Z,97635.91
2023-02-19T20:39:12.378Z,97648.72
2023-02-19T20:42:18.054Z,97664.13
2023-02-19T20:45:22.835Z,97631.53
2023-02-19T20:48:27.582Z,97650.44
2023-02-19T20:51:32.144Z,97642.66
2023-02-19T20:54:36.929Z,97613.53
2023-02-19T20:57:41.617Z,97663.19
2023-02-19T21:00:46.419Z,97639.28
2023-02-19T21:03:50.987Z,97620.31
2023-02-19T21:06:55.775Z,97630.69
2023-02-19T21:10:00.330Z,97640.94
2023-02-19T21:13:05.015Z,97657.25
2023-02-19T21:16:09.614Z,97657.25
2023-02-19T21:19:14.514Z,97658.13
2023-02-19T21:22:19.006Z,97671.00
2023-02-19T21:25:23.850Z,97655.53
2023-02-19T21:28:28.418Z,97654.66
2023-02-19T21:31:41.194Z,97651.22
2023-02-19T21:34:45.816Z,97665.00
2023-02-19T21:37:50.727Z,97653.81
2023-02-19T21:40:55.213Z,97625.38
2023-02-19T21:43:59.799Z,97665.84
2023-02-19T21:47:04.406Z,97639.19
2023-02-19T21:50:09.487Z,97667.56
2023-02-19T21:53:14.844Z,97636.69
2023-02-19T21:56:24.243Z,97669.22
2023-02-19T21:59:28.879Z,97676.06
2023-02-19T22:02:33.436Z,97679.53
2023-02-19T22:05:38.592Z,97671.00
2023-02-19T22:08:44.311Z,97691.53
2023-02-19T22:11:48.843Z,97658.13
2023-02-19T22:14:53.372Z,97697.56
2023-02-19T22:17:57.979Z,97685.59
2023-02-19T22:21:06.486Z,97656.38
2023-02-19T22:24:17.485Z,97687.25
2023-02-19T22:27:22.167Z,97692.47
2023-02-19T22:30:26.841Z,97671.06
2023-02-19T22:33:31.518Z,97683.91
2023-02-19T22:36:37.350Z,97694.19
2023-02-19T22:39:41.915Z,97699.19
2023-02-19T22:42:46.583Z,97688.16
2023-02-19T22:45:51.149Z,97691.56
2023-02-19T22:48:56.073Z,97679.66
2023-02-19T22:52:04.468Z,97712.09
2023-02-19T22:55:08.981Z,97684.75
2023-02-19T22:58:13.558Z,97697.66
2023-02-19T23:01:18.655Z,97708.88
2023-02-19T23:04:24.674Z,97707.16
2023-02-19T23:07:29.323Z,97728.63
2023-02-19T23:10:34.543Z,97724.25
2023-02-19T23:13:42.512Z,97687.47
2023-02-19T23:16:47.337Z,97705.47
2023-02-19T23:19:52.241Z,97732.03
2023-02-19T23:22:57.525Z,97705.50
2023-02-19T23:26:02.772Z,97714.88
2023-02-19T23:29:07.239Z,97698.59
2023-02-19T23:32:11.952Z,97717.47
2023-02-19T23:35:16.582Z,97711.47
2023-02-19T23:38:21.465Z,97693.53
2023-02-19T23:41:26.004Z,97722.63
2023-02-19T23:44:30.729Z,97719.25
2023-02-19T23:47:35.258Z,97703.78
2023-02-19T23:50:39.843Z,97677.19
2023-02-19T23:53:44.574Z,97713.25
2023-02-19T23:56:49.154Z,97708.03
2023-02-19T23:59:53.766Z,97694.28
